sensor_id;sensor_type;location;lat;lon;timestamp;P1;durP1;ratioP1;P2;durP2;ratioP2
1837;SDS011;918;50.796;6.772;2023-02-10T00:01:55;39.17;;;31.57;;
1837;SDS011;918;50.796;6.772;2023-02-10T00:04:20;40.23;;;32.83;;
1837;SDS011;918;50.796;6.772;2023-02-10T00:06:45;45.03;;;32.97;;
1837;SDS011;918;50.796;6.772;2023-02-10T00:09:11;47.83;;;32.63;;
1837;SDS011;918;50.796;6.772;2023-02-10T00:11:38;36.73;;;30.97;;
1837;SDS011;918;50.796;6.772;2023-02-10T00:14:22;45.30;;;33.87;;
1837;SDS011;918;50.796;6.772;2023-02-10T00:16:51;45.40;;;33.27;;
1837;SDS011;918;50.796;6.772;2023-02-10T00:19:17;44.03;;;32.83;;
1837;SDS011;918;50.796;6.772;2023-02-10T00:21:42;41.63;;;33.20;;
1837;SDS011;918;50.796;6.772;2023-02-10T00:24:08;46.27;;;33.30;;
1837;SDS011;918;50.796;6.772;2023-02-10T00:26:33;48.60;;;34.67;;
1837;SDS011;918;50.796;6.772;2023-02-10T00:28:58;43.50;;;32.13;;
1837;SDS011;918;50.796;6.772;2023-02-10T00:31:24;47.20;;;34.40;;
1837;SDS011;918;50.796;6.772;2023-02-10T00:33:49;40.33;;;32.63;;
1837;SDS011;918;50.796;6.772;2023-02-10T00:36:14;44.87;;;35.47;;
1837;SDS011;918;50.796;6.772;2023-02-10T00:38:40;48.47;;;34.20;;
1837;SDS011;918;50.796;6.772;2023-02-10T00:41:07;48.87;;;34.17;;
1837;SDS011;918;50.796;6.772;2023-02-10T00:43:34;46.60;;;34.30;;
1837;SDS011;918;50.796;6.772;2023-02-10T00:46:01;47.17;;;33.43;;
1837;SDS011;918;50.796;6.772;2023-02-10T00:48:26;48.07;;;32.10;;
1837;SDS011;918;50.796;6.772;2023-02-10T00:50:52;44.93;;;33.10;;
1837;SDS011;918;50.796;6.772;2023-02-10T00:53:17;43.73;;;32.53;;
1837;SDS011;918;50.796;6.772;2023-02-10T00:55:42;41.13;;;32.93;;
1837;SDS011;918;50.796;6.772;2023-02-10T00:58:07;38.93;;;31.90;;
1837;SDS011;918;50.796;6.772;2023-02-10T01:00:32;44.17;;;31.83;;
1837;SDS011;918;50.796;6.772;2023-02-10T01:02:58;43.50;;;33.27;;
1837;SDS011;918;50.796;6.772;2023-02-10T01:05:23;44.87;;;33.17;;
1837;SDS011;918;50.796;6.772;2023-02-10T01:07:48;40.87;;;32.37;;
1837;SDS011;918;50.796;6.772;2023-02-10T01:10:13;44.27;;;30.83;;
1837;SDS011;918;50.796;6.772;2023-02-10T01:12:39;44.27;;;32.50;;
1837;SDS011;918;50.796;6.772;2023-02-10T01:15:04;41.83;;;32.13;;
1837;SDS011;918;50.796;6.772;2023-02-10T01:17:29;51.87;;;34.10;;
1837;SDS011;918;50.796;6.772;2023-02-10T01:19:55;43.97;;;31.80;;
1837;SDS011;918;50.796;6.772;2023-02-10T01:22:20;42.50;;;32.10;;
1837;SDS011;918;50.796;6.772;2023-02-10T01:24:46;40.83;;;31.13;;
1837;SDS011;918;50.796;6.772;2023-02-10T01:27:11;44.97;;;32.13;;
1837;SDS011;918;50.796;6.772;2023-02-10T01:29:36;44.00;;;32.57;;
1837;SDS011;918;50.796;6.772;2023-02-10T01:32:01;38.63;;;29.50;;
1837;SDS011;918;50.796;6.772;2023-02-10T01:34:27;41.30;;;29.80;;
1837;SDS011;918;50.796;6.772;2023-02-10T01:36:52;46.47;;;30.90;;
1837;SDS011;918;50.796;6.772;2023-02-10T01:39:17;44.93;;;32.33;;
1837;SDS011;918;50.796;6.772;2023-02-10T01:41:43;41.80;;;29.77;;
1837;SDS011;918;50.796;6.772;2023-02-10T01:46:43;44.00;;;30.70;;
1837;SDS011;918;50.796;6.772;2023-02-10T01:49:09;45.60;;;31.90;;
1837;SDS011;918;50.796;6.772;2023-02-10T01:51:37;47.80;;;28.93;;
1837;SDS011;918;50.796;6.772;2023-02-10T01:54:05;44.90;;;30.73;;
1837;SDS011;918;50.796;6.772;2023-02-10T01:56:31;40.70;;;29.10;;
1837;SDS011;918;50.796;6.772;2023-02-10T01:58:57;45.53;;;30.27;;
1837;SDS011;918;50.796;6.772;2023-02-10T02:01:22;40.63;;;30.77;;
1837;SDS011;918;50.796;6.772;2023-02-10T02:03:47;37.20;;;29.27;;
1837;SDS011;918;50.796;6.772;2023-02-10T02:06:13;42.03;;;29.33;;
1837;SDS011;918;50.796;6.772;2023-02-10T02:08:38;40.87;;;28.30;;
1837;SDS011;918;50.796;6.772;2023-02-10T02:11:12;45.33;;;29.40;;
1837;SDS011;918;50.796;6.772;2023-02-10T02:13:57;39.80;;;31.50;;
1837;SDS011;918;50.796;6.772;2023-02-10T02:16:58;41.47;;;31.67;;
1837;SDS011;918;50.796;6.772;2023-02-10T02:33:17;40.47;;;30.50;;
1837;SDS011;918;50.796;6.772;2023-02-10T02:38:46;43.77;;;29.67;;
1837;SDS011;918;50.796;6.772;2023-02-10T02:41:12;44.97;;;29.90;;
1837;SDS011;918;50.796;6.772;2023-02-10T02:43:37;44.57;;;29.03;;
1837;SDS011;918;50.796;6.772;2023-02-10T02:46:10;43.20;;;30.37;;
1837;SDS011;918;50.796;6.772;2023-02-10T02:51:18;45.27;;;29.57;;
1837;SDS011;918;50.796;6.772;2023-02-10T02:53:55;47.77;;;30.00;;
1837;SDS011;918;50.796;6.772;2023-02-10T02:59:23;38.90;;;29.80;;
1837;SDS011;918;50.796;6.772;2023-02-10T03:01:58;45.43;;;29.23;;
1837;SDS011;918;50.796;6.772;2023-02-10T03:04:29;44.77;;;30.30;;
1837;SDS011;918;50.796;6.772;2023-02-10T03:06:56;40.83;;;28.37;;
1837;SDS011;918;50.796;6.772;2023-02-10T03:09:22;44.67;;;30.70;;
1837;SDS011;918;50.796;6.772;2023-02-10T03:11:47;40.60;;;29.33;;
1837;SDS011;918;50.796;6.772;2023-02-10T03:14:13;42.43;;;28.60;;
1837;SDS011;918;50.796;6.772;2023-02-10T03:16:38;42.13;;;30.30;;
1837;SDS011;918;50.796;6.772;2023-02-10T03:19:03;42.23;;;29.47;;
1837;SDS011;918;50.796;6.772;2023-02-10T03:21:29;41.57;;;28.47;;
1837;SDS011;918;50.796;6.772;2023-02-10T03:23:54;44.73;;;29.77;;
1837;SDS011;918;50.796;6.772;2023-02-10T03:26:19;39.27;;;29.40;;
1837;SDS011;918;50.796;6.772;2023-02-10T03:28:44;39.40;;;29.47;;
1837;SDS011;918;50.796;6.772;2023-02-10T03:31:10;43.20;;;28.87;;
1837;SDS011;918;50.796;6.772;2023-02-10T03:33:35;46.20;;;30.90;;
1837;SDS011;918;50.796;6.772;2023-02-10T03:36:01;41.13;;;27.93;;
1837;SDS011;918;50.796;6.772;2023-02-10T03:38:27;38.17;;;28.33;;
1837;SDS011;918;50.796;6.772;2023-02-10T03:40:53;41.23;;;28.70;;
1837;SDS011;918;50.796;6.772;2023-02-10T03:43:19;40.40;;;28.70;;
1837;SDS011;918;50.796;6.772;2023-02-10T03:45:45;44.50;;;30.60;;
1837;SDS011;918;50.796;6.772;2023-02-10T03:48:11;38.97;;;28.83;;
1837;SDS011;918;50.796;6.772;2023-02-10T03:50:36;41.53;;;27.67;;
1837;SDS011;918;50.796;6.772;2023-02-10T03:53:02;37.87;;;27.00;;
1837;SDS011;918;50.796;6.772;2023-02-10T03:55:27;42.60;;;28.90;;
1837;SDS011;918;50.796;6.772;2023-02-10T03:57:52;48.13;;;30.03;;
1837;SDS011;918;50.796;6.772;2023-02-10T04:00:18;40.50;;;28.90;;
1837;SDS011;918;50.796;6.772;2023-02-10T04:02:43;47.27;;;31.70;;
1837;SDS011;918;50.796;6.772;2023-02-10T04:05:09;49.10;;;32.60;;
1837;SDS011;918;50.796;6.772;2023-02-10T04:07:34;40.80;;;27.97;;
1837;SDS011;918;50.796;6.772;2023-02-10T04:09:59;36.20;;;27.20;;
1837;SDS011;918;50.796;6.772;2023-02-10T04:12:25;42.23;;;29.20;;
1837;SDS011;918;50.796;6.772;2023-02-10T04:14:50;40.00;;;28.97;;
1837;SDS011;918;50.796;6.772;2023-02-10T04:17:15;38.93;;;28.17;;
1837;SDS011;918;50.796;6.772;2023-02-10T04:19:40;41.73;;;28.97;;
1837;SDS011;918;50.796;6.772;2023-02-10T04:22:06;41.97;;;28.03;;
1837;SDS011;918;50.796;6.772;2023-02-10T04:24:31;39.67;;;28.87;;
1837;SDS011;918;50.796;6.772;2023-02-10T04:26:56;41.60;;;26.43;;
1837;SDS011;918;50.796;6.772;2023-02-10T04:29:22;37.17;;;27.10;;
1837;SDS011;918;50.796;6.772;2023-02-10T04:31:47;37.93;;;27.87;;
1837;SDS011;918;50.796;6.772;2023-02-10T04:34:12;41.17;;;27.03;;
1837;SDS011;918;50.796;6.772;2023-02-10T04:36:38;43.70;;;27.73;;
1837;SDS011;918;50.796;6.772;2023-02-10T04:39:03;42.57;;;28.80;;
1837;SDS011;918;50.796;6.772;2023-02-10T04:41:28;42.93;;;28.97;;
1837;SDS011;918;50.796;6.772;2023-02-10T04:43:54;39.83;;;28.77;;
1837;SDS011;918;50.796;6.772;2023-02-10T04:46:19;39.40;;;27.53;;
1837;SDS011;918;50.796;6.772;2023-02-10T04:48:44;40.13;;;28.60;;
1837;SDS011;918;50.796;6.772;2023-02-10T04:51:10;40.67;;;26.83;;
1837;SDS011;918;50.796;6.772;2023-02-10T04:53:36;40.20;;;27.97;;
1837;SDS011;918;50.796;6.772;2023-02-10T04:56:02;38.77;;;26.63;;
1837;SDS011;918;50.796;6.772;2023-02-10T04:58:28;36.60;;;27.10;;
1837;SDS011;918;50.796;6.772;2023-02-10T05:00:54;39.03;;;25.20;;
1837;SDS011;918;50.796;6.772;2023-02-10T05:03:20;40.37;;;26.07;;
1837;SDS011;918;50.796;6.772;2023-02-10T05:05:45;37.67;;;27.50;;
1837;SDS011;918;50.796;6.772;2023-02-10T05:08:10;42.60;;;28.80;;
1837;SDS011;918;50.796;6.772;2023-02-10T05:10:36;40.63;;;27.57;;
1837;SDS011;918;50.796;6.772;2023-02-10T05:13:01;35.30;;;25.70;;
1837;SDS011;918;50.796;6.772;2023-02-10T05:15:26;38.07;;;25.33;;
1837;SDS011;918;50.796;6.772;2023-02-10T05:17:51;38.63;;;25.90;;
1837;SDS011;918;50.796;6.772;2023-02-10T05:20:17;42.23;;;27.13;;
1837;SDS011;918;50.796;6.772;2023-02-10T05:22:42;40.63;;;27.17;;
1837;SDS011;918;50.796;6.772;2023-02-10T05:25:07;41.07;;;27.30;;
1837;SDS011;918;50.796;6.772;2023-02-10T05:27:33;38.57;;;27.10;;
1837;SDS011;918;50.796;6.772;2023-02-10T05:29:59;42.43;;;24.93;;
1837;SDS011;918;50.796;6.772;2023-02-10T05:32:24;40.70;;;27.47;;
1837;SDS011;918;50.796;6.772;2023-02-10T05:34:50;35.83;;;24.87;;
1837;SDS011;918;50.796;6.772;2023-02-10T05:37:15;41.30;;;26.20;;
1837;SDS011;918;50.796;6.772;2023-02-10T05:39:40;40.53;;;27.57;;
1837;SDS011;918;50.796;6.772;2023-02-10T05:42:06;39.60;;;25.53;;
1837;SDS011;918;50.796;6.772;2023-02-10T05:44:31;34.93;;;26.33;;
1837;SDS011;918;50.796;6.772;2023-02-10T05:46:56;40.60;;;27.27;;
1837;SDS011;918;50.796;6.772;2023-02-10T05:49:22;38.43;;;25.20;;
1837;SDS011;918;50.796;6.772;2023-02-10T05:51:47;36.80;;;26.37;;
1837;SDS011;918;50.796;6.772;2023-02-10T05:54:12;37.97;;;27.03;;
1837;SDS011;918;50.796;6.772;2023-02-10T05:56:38;41.57;;;26.67;;
1837;SDS011;918;50.796;6.772;2023-02-10T05:59:04;37.80;;;28.37;;
1837;SDS011;918;50.796;6.772;2023-02-10T06:01:29;33.73;;;24.40;;
1837;SDS011;918;50.796;6.772;2023-02-10T06:03:55;41.53;;;26.90;;
1837;SDS011;918;50.796;6.772;2023-02-10T06:06:20;32.87;;;25.13;;
1837;SDS011;918;50.796;6.772;2023-02-10T06:08:49;35.60;;;24.50;;
1837;SDS011;918;50.796;6.772;2023-02-10T06:11:14;35.27;;;26.40;;
1837;SDS011;918;50.796;6.772;2023-02-10T06:13:40;39.37;;;25.53;;
1837;SDS011;918;50.796;6.772;2023-02-10T06:16:05;44.27;;;27.73;;
1837;SDS011;918;50.796;6.772;2023-02-10T06:18:31;39.40;;;25.33;;
1837;SDS011;918;50.796;6.772;2023-02-10T06:20:56;34.90;;;24.27;;
1837;SDS011;918;50.796;6.772;2023-02-10T06:23:22;30.50;;;23.87;;
1837;SDS011;918;50.796;6.772;2023-02-10T06:25:48;35.60;;;24.00;;
1837;SDS011;918;50.796;6.772;2023-02-10T06:28:13;38.90;;;27.70;;
1837;SDS011;918;50.796;6.772;2023-02-10T06:30:39;40.83;;;26.30;;
1837;SDS011;918;50.796;6.772;2023-02-10T06:33:05;41.03;;;23.60;;
1837;SDS011;918;50.796;6.772;2023-02-10T06:35:31;42.40;;;25.17;;
1837;SDS011;918;50.796;6.772;2023-02-10T06:37:56;33.33;;;24.63;;
1837;SDS011;918;50.796;6.772;2023-02-10T06:40:21;35.30;;;24.97;;
1837;SDS011;918;50.796;6.772;2023-02-10T06:42:47;35.73;;;23.43;;
1837;SDS011;918;50.796;6.772;2023-02-10T06:45:12;35.63;;;25.00;;
1837;SDS011;918;50.796;6.772;2023-02-10T06:47:38;39.83;;;25.57;;
1837;SDS011;918;50.796;6.772;2023-02-10T06:50:03;36.93;;;24.50;;
1837;SDS011;918;50.796;6.772;2023-02-10T06:52:28;37.77;;;25.00;;
1837;SDS011;918;50.796;6.772;2023-02-10T06:54:55;36.10;;;26.70;;
1837;SDS011;918;50.796;6.772;2023-02-10T06:57:20;39.13;;;26.20;;
1837;SDS011;918;50.796;6.772;2023-02-10T06:59:45;37.57;;;24.93;;
1837;SDS011;918;50.796;6.772;2023-02-10T07:02:11;39.27;;;25.17;;
1837;SDS011;918;50.796;6.772;2023-02-10T07:04:37;41.73;;;26.83;;
1837;SDS011;918;50.796;6.772;2023-02-10T07:07:02;37.70;;;25.37;;
1837;SDS011;918;50.796;6.772;2023-02-10T07:09:27;34.50;;;25.10;;
1837;SDS011;918;50.796;6.772;2023-02-10T07:11:53;39.50;;;25.80;;
1837;SDS011;918;50.796;6.772;2023-02-10T07:14:18;39.77;;;24.20;;
1837;SDS011;918;50.796;6.772;2023-02-10T07:16:43;44.30;;;27.83;;
1837;SDS011;918;50.796;6.772;2023-02-10T07:19:08;44.90;;;27.40;;
1837;SDS011;918;50.796;6.772;2023-02-10T07:21:34;44.43;;;29.00;;
1837;SDS011;918;50.796;6.772;2023-02-10T07:23:59;41.67;;;28.80;;
1837;SDS011;918;50.796;6.772;2023-02-10T07:26:26;40.30;;;27.80;;
1837;SDS011;918;50.796;6.772;2023-02-10T07:28:52;36.77;;;27.13;;
1837;SDS011;918;50.796;6.772;2023-02-10T07:31:17;39.93;;;24.93;;
1837;SDS011;918;50.796;6.772;2023-02-10T07:33:42;37.70;;;25.17;;
1837;SDS011;918;50.796;6.772;2023-02-10T07:36:08;35.87;;;26.03;;
1837;SDS011;918;50.796;6.772;2023-02-10T07:38:33;40.10;;;27.00;;
1837;SDS011;918;50.796;6.772;2023-02-10T07:40:59;40.70;;;26.97;;
1837;SDS011;918;50.796;6.772;2023-02-10T07:43:24;38.63;;;24.83;;
1837;SDS011;918;50.796;6.772;2023-02-10T07:45:50;35.93;;;25.43;;
1837;SDS011;918;50.796;6.772;2023-02-10T07:48:16;37.40;;;25.40;;
1837;SDS011;918;50.796;6.772;2023-02-10T07:50:41;35.63;;;25.50;;
1837;SDS011;918;50.796;6.772;2023-02-10T07:53:07;38.70;;;24.60;;
1837;SDS011;918;50.796;6.772;2023-02-10T07:55:32;40.00;;;25.43;;
1837;SDS011;918;50.796;6.772;2023-02-10T07:57:57;43.63;;;26.60;;
1837;SDS011;918;50.796;6.772;2023-02-10T08:00:23;41.03;;;24.93;;
1837;SDS011;918;50.796;6.772;2023-02-10T08:02:48;36.20;;;24.43;;
1837;SDS011;918;50.796;6.772;2023-02-10T08:05:13;36.70;;;24.13;;
1837;SDS011;918;50.796;6.772;2023-02-10T08:07:38;36.67;;;24.07;;
1837;SDS011;918;50.796;6.772;2023-02-10T08:10:04;34.97;;;22.97;;
1837;SDS011;918;50.796;6.772;2023-02-10T08:12:29;38.73;;;25.03;;
1837;SDS011;918;50.796;6.772;2023-02-10T08:14:54;29.70;;;23.13;;
1837;SDS011;918;50.796;6.772;2023-02-10T08:17:20;31.40;;;21.87;;
1837;SDS011;918;50.796;6.772;2023-02-10T08:19:45;32.20;;;23.53;;
1837;SDS011;918;50.796;6.772;2023-02-10T08:22:10;36.23;;;23.67;;
1837;SDS011;918;50.796;6.772;2023-02-10T08:24:35;30.20;;;21.80;;
1837;SDS011;918;50.796;6.772;2023-02-10T08:27:00;27.83;;;20.33;;
1837;SDS011;918;50.796;6.772;2023-02-10T08:29:26;27.77;;;22.97;;
1837;SDS011;918;50.796;6.772;2023-02-10T08:31:51;32.90;;;19.73;;
1837;SDS011;918;50.796;6.772;2023-02-10T08:34:18;29.30;;;20.17;;
1837;SDS011;918;50.796;6.772;2023-02-10T08:36:44;27.07;;;19.40;;
1837;SDS011;918;50.796;6.772;2023-02-10T08:39:10;28.23;;;19.97;;
1837;SDS011;918;50.796;6.772;2023-02-10T08:41:36;28.30;;;17.63;;
1837;SDS011;918;50.796;6.772;2023-02-10T08:44:01;26.40;;;17.63;;
1837;SDS011;918;50.796;6.772;2023-02-10T08:46:27;22.27;;;17.67;;
1837;SDS011;918;50.796;6.772;2023-02-10T08:48:52;26.00;;;18.20;;
1837;SDS011;918;50.796;6.772;2023-02-10T08:51:17;25.40;;;17.20;;
1837;SDS011;918;50.796;6.772;2023-02-10T08:53:43;23.00;;;17.30;;
1837;SDS011;918;50.796;6.772;2023-02-10T08:56:10;22.60;;;16.57;;
1837;SDS011;918;50.796;6.772;2023-02-10T08:58:37;21.37;;;16.70;;
1837;SDS011;918;50.796;6.772;2023-02-10T09:01:09;22.93;;;16.77;;
1837;SDS011;918;50.796;6.772;2023-02-10T09:03:39;23.53;;;16.67;;
1837;SDS011;918;50.796;6.772;2023-02-10T09:06:14;26.63;;;17.57;;
1837;SDS011;918;50.796;6.772;2023-02-10T09:08:41;24.40;;;16.30;;
1837;SDS011;918;50.796;6.772;2023-02-10T09:11:07;22.70;;;16.00;;
1837;SDS011;918;50.796;6.772;2023-02-10T09:13:33;22.50;;;16.40;;
1837;SDS011;918;50.796;6.772;2023-02-10T09:15:58;23.17;;;16.97;;
1837;SDS011;918;50.796;6.772;2023-02-10T09:18:23;26.80;;;17.07;;
1837;SDS011;918;50.796;6.772;2023-02-10T09:20:48;21.70;;;16.00;;
1837;SDS011;918;50.796;6.772;2023-02-10T09:23:13;21.87;;;16.27;;
1837;SDS011;918;50.796;6.772;2023-02-10T09:25:39;23.50;;;16.60;;
1837;SDS011;918;50.796;6.772;2023-02-10T09:28:04;22.23;;;16.20;;
1837;SDS011;918;50.796;6.772;2023-02-10T09:30:29;22.23;;;16.00;;
1837;SDS011;918;50.796;6.772;2023-02-10T09:32:54;22.70;;;16.60;;
1837;SDS011;918;50.796;6.772;2023-02-10T09:35:20;22.00;;;16.03;;
1837;SDS011;918;50.796;6.772;2023-02-10T09:37:46;24.63;;;16.07;;
1837;SDS011;918;50.796;6.772;2023-02-10T09:40:22;21.43;;;15.00;;
1837;SDS011;918;50.796;6.772;2023-02-10T09:45:37;17.50;;;15.60;;
1837;SDS011;918;50.796;6.772;2023-02-10T09:50:55;19.90;;;15.13;;
1837;SDS011;918;50.796;6.772;2023-02-10T09:53:25;24.03;;;17.00;;
1837;SDS011;918;50.796;6.772;2023-02-10T09:58:35;16.07;;;13.23;;
1837;SDS011;918;50.796;6.772;2023-02-10T10:01:05;20.97;;;16.97;;
1837;SDS011;918;50.796;6.772;2023-02-10T10:03:48;21.60;;;16.13;;
1837;SDS011;918;50.796;6.772;2023-02-10T10:11:43;20.97;;;16.50;;
1837;SDS011;918;50.796;6.772;2023-02-10T10:14:33;22.90;;;16.00;;
1837;SDS011;918;50.796;6.772;2023-02-10T10:25:49;23.87;;;17.53;;
1837;SDS011;918;50.796;6.772;2023-02-10T10:31:09;22.90;;;16.53;;
1837;SDS011;918;50.796;6.772;2023-02-10T10:36:16;25.50;;;17.87;;
1837;SDS011;918;50.796;6.772;2023-02-10T10:38:46;23.17;;;17.50;;
1837;SDS011;918;50.796;6.772;2023-02-10T10:41:13;22.73;;;17.90;;
1837;SDS011;918;50.796;6.772;2023-02-10T10:43:44;28.77;;;19.37;;
1837;SDS011;918;50.796;6.772;2023-02-10T10:46:13;25.20;;;19.00;;
1837;SDS011;918;50.796;6.772;2023-02-10T10:48:42;23.97;;;16.40;;
1837;SDS011;918;50.796;6.772;2023-02-10T10:51:07;26.63;;;18.13;;
1837;SDS011;918;50.796;6.772;2023-02-10T10:53:46;24.47;;;19.30;;
1837;SDS011;918;50.796;6.772;2023-02-10T10:58:48;25.13;;;20.27;;
1837;SDS011;918;50.796;6.772;2023-02-10T11:01:15;25.17;;;20.47;;
1837;SDS011;918;50.796;6.772;2023-02-10T11:03:41;27.77;;;20.60;;
1837;SDS011;918;50.796;6.772;2023-02-10T11:08:43;27.40;;;21.40;;
1837;SDS011;918;50.796;6.772;2023-02-10T11:11:12;27.87;;;21.40;;
1837;SDS011;918;50.796;6.772;2023-02-10T11:13:40;26.20;;;21.83;;
1837;SDS011;918;50.796;6.772;2023-02-10T11:16:14;27.33;;;21.60;;
1837;SDS011;918;50.796;6.772;2023-02-10T11:18:50;29.77;;;22.13;;
1837;SDS011;918;50.796;6.772;2023-02-10T11:21:20;25.73;;;18.97;;
1837;SDS011;918;50.796;6.772;2023-02-10T11:23:52;28.37;;;20.67;;
1837;SDS011;918;50.796;6.772;2023-02-10T11:26:19;27.07;;;20.83;;
1837;SDS011;918;50.796;6.772;2023-02-10T11:28:46;30.03;;;23.07;;
1837;SDS011;918;50.796;6.772;2023-02-10T11:31:22;28.97;;;22.43;;
1837;SDS011;918;50.796;6.772;2023-02-10T11:33:57;31.90;;;24.57;;
1837;SDS011;918;50.796;6.772;2023-02-10T11:36:38;27.50;;;23.63;;
1837;SDS011;918;50.796;6.772;2023-02-10T11:39:06;30.20;;;22.33;;
1837;SDS011;918;50.796;6.772;2023-02-10T11:41:43;26.60;;;22.50;;
1837;SDS011;918;50.796;6.772;2023-02-10T11:47:04;29.23;;;21.77;;
1837;SDS011;918;50.796;6.772;2023-02-10T11:49:36;23.60;;;19.63;;
1837;SDS011;918;50.796;6.772;2023-02-10T11:52:02;25.73;;;21.37;;
1837;SDS011;918;50.796;6.772;2023-02-10T11:54:28;24.50;;;19.60;;
1837;SDS011;918;50.796;6.772;2023-02-10T11:57:00;24.27;;;20.13;;
1837;SDS011;918;50.796;6.772;2023-02-10T11:59:54;26.47;;;21.90;;
1837;SDS011;918;50.796;6.772;2023-02-10T12:11:00;27.80;;;20.90;;
1837;SDS011;918;50.796;6.772;2023-02-10T12:16:29;25.20;;;19.70;;
1837;SDS011;918;50.796;6.772;2023-02-10T12:19:01;26.90;;;20.30;;
1837;SDS011;918;50.796;6.772;2023-02-10T12:27:13;21.87;;;16.77;;
1837;SDS011;918;50.796;6.772;2023-02-10T12:29:50;22.00;;;18.00;;
1837;SDS011;918;50.796;6.772;2023-02-10T12:32:34;19.57;;;15.90;;
1837;SDS011;918;50.796;6.772;2023-02-10T12:37:39;20.40;;;16.10;;
1837;SDS011;918;50.796;6.772;2023-02-10T12:40:16;19.80;;;16.10;;
1837;SDS011;918;50.796;6.772;2023-02-10T12:42:57;19.57;;;16.70;;
1837;SDS011;918;50.796;6.772;2023-02-10T12:53:47;17.37;;;15.53;;
1837;SDS011;918;50.796;6.772;2023-02-10T12:58:53;16.43;;;14.70;;
1837;SDS011;918;50.796;6.772;2023-02-10T13:03:53;16.70;;;15.00;;
1837;SDS011;918;50.796;6.772;2023-02-10T13:06:44;17.73;;;15.93;;
1837;SDS011;918;50.796;6.772;2023-02-10T13:12:07;17.20;;;14.33;;
1837;SDS011;918;50.796;6.772;2023-02-10T13:14:39;17.43;;;14.90;;
1837;SDS011;918;50.796;6.772;2023-02-10T13:17:07;18.73;;;16.93;;
1837;SDS011;918;50.796;6.772;2023-02-10T13:22:40;19.27;;;16.57;;
1837;SDS011;918;50.796;6.772;2023-02-10T13:25:17;18.77;;;16.97;;
1837;SDS011;918;50.796;6.772;2023-02-10T13:36:01;21.80;;;17.37;;
1837;SDS011;918;50.796;6.772;2023-02-10T13:38:27;19.40;;;17.53;;
1837;SDS011;918;50.796;6.772;2023-02-10T13:40:57;21.33;;;18.33;;
1837;SDS011;918;50.796;6.772;2023-02-10T13:43:43;21.10;;;18.30;;
1837;SDS011;918;50.796;6.772;2023-02-10T13:46:19;19.60;;;17.60;;
1837;SDS011;918;50.796;6.772;2023-02-10T13:48:50;21.40;;;18.10;;
1837;SDS011;918;50.796;6.772;2023-02-10T13:51:26;20.40;;;18.13;;
1837;SDS011;918;50.796;6.772;2023-02-10T13:53:53;21.47;;;19.20;;
1837;SDS011;918;50.796;6.772;2023-02-10T14:04:03;21.97;;;19.77;;
1837;SDS011;918;50.796;6.772;2023-02-10T14:06:37;20.13;;;17.90;;
1837;SDS011;918;50.796;6.772;2023-02-10T14:09:05;20.50;;;16.87;;
1837;SDS011;918;50.796;6.772;2023-02-10T14:11:42;18.87;;;17.07;;
1837;SDS011;918;50.796;6.772;2023-02-10T14:16:50;20.83;;;16.73;;
1837;SDS011;918;50.796;6.772;2023-02-10T14:19:58;17.20;;;15.43;;
1837;SDS011;918;50.796;6.772;2023-02-10T14:22:05;18.73;;;16.73;;
1837;SDS011;918;50.796;6.772;2023-02-10T14:24:35;18.67;;;16.77;;
1837;SDS011;918;50.796;6.772;2023-02-10T14:27:08;22.00;;;16.80;;
1837;SDS011;918;50.796;6.772;2023-02-10T14:29:36;19.63;;;17.17;;
1837;SDS011;918;50.796;6.772;2023-02-10T14:32:04;17.93;;;16.10;;
1837;SDS011;918;50.796;6.772;2023-02-10T14:34:34;17.17;;;15.47;;
1837;SDS011;918;50.796;6.772;2023-02-10T14:39:50;19.77;;;15.30;;
1837;SDS011;918;50.796;6.772;2023-02-10T14:42:20;16.80;;;15.10;;
1837;SDS011;918;50.796;6.772;2023-02-10T14:44:50;16.67;;;13.73;;
1837;SDS011;918;50.796;6.772;2023-02-10T14:47:17;15.67;;;13.63;;
1837;SDS011;918;50.796;6.772;2023-02-10T14:49:47;17.47;;;15.60;;
1837;SDS011;918;50.796;6.772;2023-02-10T14:52:29;18.87;;;16.80;;
1837;SDS011;918;50.796;6.772;2023-02-10T14:54:56;16.47;;;14.37;;
1837;SDS011;918;50.796;6.772;2023-02-10T14:57:22;17.53;;;15.80;;
1837;SDS011;918;50.796;6.772;2023-02-10T14:59:57;19.40;;;17.40;;
1837;SDS011;918;50.796;6.772;2023-02-10T15:02:30;17.80;;;16.00;;
1837;SDS011;918;50.796;6.772;2023-02-10T15:04:58;16.83;;;15.13;;
1837;SDS011;918;50.796;6.772;2023-02-10T15:07:26;17.40;;;15.60;;
1837;SDS011;918;50.796;6.772;2023-02-10T15:09:53;16.07;;;14.57;;
1837;SDS011;918;50.796;6.772;2023-02-10T15:12:19;18.50;;;16.67;;
1837;SDS011;918;50.796;6.772;2023-02-10T15:14:58;18.10;;;16.30;;
1837;SDS011;918;50.796;6.772;2023-02-10T15:17:29;18.30;;;16.47;;
1837;SDS011;918;50.796;6.772;2023-02-10T15:19:58;16.83;;;15.10;;
1837;SDS011;918;50.796;6.772;2023-02-10T15:22:32;20.30;;;17.20;;
1837;SDS011;918;50.796;6.772;2023-02-10T15:25:08;17.37;;;15.50;;
1837;SDS011;918;50.796;6.772;2023-02-10T15:30:41;16.67;;;14.90;;
1837;SDS011;918;50.796;6.772;2023-02-10T15:33:20;17.80;;;16.00;;
1837;SDS011;918;50.796;6.772;2023-02-10T15:43:53;17.30;;;15.57;;
1837;SDS011;918;50.796;6.772;2023-02-10T15:46:19;19.20;;;15.30;;
1837;SDS011;918;50.796;6.772;2023-02-10T15:48:47;17.23;;;15.40;;
1837;SDS011;918;50.796;6.772;2023-02-10T15:53:49;17.17;;;15.40;;
1837;SDS011;918;50.796;6.772;2023-02-10T15:56:16;18.27;;;16.57;;
1837;SDS011;918;50.796;6.772;2023-02-10T15:58:41;17.73;;;15.00;;
1837;SDS011;918;50.796;6.772;2023-02-10T16:01:06;18.70;;;16.83;;
1837;SDS011;918;50.796;6.772;2023-02-10T16:03:31;17.53;;;15.57;;
1837;SDS011;918;50.796;6.772;2023-02-10T16:05:56;17.10;;;15.30;;
1837;SDS011;918;50.796;6.772;2023-02-10T16:08:26;18.83;;;15.70;;
1837;SDS011;918;50.796;6.772;2023-02-10T16:10:52;17.93;;;16.00;;
1837;SDS011;918;50.796;6.772;2023-02-10T16:13:18;16.90;;;15.20;;
1837;SDS011;918;50.796;6.772;2023-02-10T16:15:44;20.00;;;15.80;;
1837;SDS011;918;50.796;6.772;2023-02-10T16:18:13;16.47;;;14.80;;
1837;SDS011;918;50.796;6.772;2023-02-10T16:20:39;16.00;;;14.60;;
1837;SDS011;918;50.796;6.772;2023-02-10T16:23:12;18.57;;;15.20;;
1837;SDS011;918;50.796;6.772;2023-02-10T16:25:38;19.73;;;15.00;;
1837;SDS011;918;50.796;6.772;2023-02-10T16:28:04;18.13;;;16.33;;
1837;SDS011;918;50.796;6.772;2023-02-10T16:30:29;16.90;;;15.30;;
1837;SDS011;918;50.796;6.772;2023-02-10T16:32:55;16.40;;;14.80;;
1837;SDS011;918;50.796;6.772;2023-02-10T16:35:21;19.43;;;16.17;;
1837;SDS011;918;50.796;6.772;2023-02-10T16:37:47;18.03;;;14.87;;
1837;SDS011;918;50.796;6.772;2023-02-10T16:40:15;16.47;;;14.70;;
1837;SDS011;918;50.796;6.772;2023-02-10T16:42:44;20.17;;;15.40;;
1837;SDS011;918;50.796;6.772;2023-02-10T16:45:09;18.17;;;16.13;;
1837;SDS011;918;50.796;6.772;2023-02-10T16:47:34;20.43;;;16.47;;
1837;SDS011;918;50.796;6.772;2023-02-10T16:50:00;21.10;;;16.43;;
1837;SDS011;918;50.796;6.772;2023-02-10T16:52:25;16.30;;;13.77;;
1837;SDS011;918;50.796;6.772;2023-02-10T16:54:51;17.00;;;15.33;;
1837;SDS011;918;50.796;6.772;2023-02-10T16:57:17;18.37;;;14.67;;
1837;SDS011;918;50.796;6.772;2023-02-10T16:59:43;18.10;;;16.20;;
1837;SDS011;918;50.796;6.772;2023-02-10T17:02:08;17.70;;;14.77;;
1837;SDS011;918;50.796;6.772;2023-02-10T17:04:33;17.60;;;15.80;;
1837;SDS011;918;50.796;6.772;2023-02-10T17:06:58;21.97;;;19.77;;
1837;SDS011;918;50.796;6.772;2023-02-10T17:09:24;23.67;;;21.20;;
1837;SDS011;918;50.796;6.772;2023-02-10T17:11:50;21.50;;;18.87;;
1837;SDS011;918;50.796;6.772;2023-02-10T17:14:15;19.63;;;17.50;;
1837;SDS011;918;50.796;6.772;2023-02-10T17:16:42;21.60;;;19.40;;
1837;SDS011;918;50.796;6.772;2023-02-10T17:19:10;20.17;;;18.07;;